Terminal Aerodrome Forecast
Issued by NWS

Home | Current Version | Previous Version | Text Only | Print | Product List | Glossary On
Versions: 1 2 3 4 5 6 7 8 9 10 11 12 13 14 15 16 17 18 19 20 21 22 23 24 25 26 27 28 29 30 31 32 33 34
000
FTUS41 KCTP 281143
TAFUNV
TAF
KUNV 281143Z 2812/2912 VRB03KT 1/4SM FG OVC001
      TEMPO 2812/2813 1SM BR SCT001 OVC008
     FM281300 17003KT 4SM BR BKN025
     FM281500 17004KT P6SM BKN035
     FM290100 18008KT 5SM -SHRA BR OVC025=

USA.gov is the U.S. government's official web portal to all federal, state and local government web resources and services.